Time,TemperatureF,DewpointF,PressureIn,WindDirection,WindDirectionDegrees,WindSpeedMPH,WindSpeedGustMPH,Humidity,HourlyPrecipIn,Conditions,Clouds,dailyrainin,SoftwareType,DateUTC
2013-01-30 00:03:00,45.1,21.6,30.24,NNW,333,0.0,14.0,39,0.00,,,0.00,Wunderground v.1.15,2013-01-30 08:03:00,
2013-01-30 00:09:00,44.1,22.4,30.24,NNW,333,0.0,14.0,42,0.00,,,0.00,Wunderground v.1.15,2013-01-30 08:09:00,
2013-01-30 00:15:00,43.3,21.7,30.23,WNW,291,1.0,5.0,42,0.00,,,0.00,Wunderground v.1.15,2013-01-30 08:15:00,
2013-01-30 00:20:00,45.1,18.4,30.23,NNW,342,3.0,3.0,34,0.00,,,0.00,Wunderground v.1.15,2013-01-30 08:20:00,
2013-01-30 00:25:00,45.7,20.9,30.23,NNW,331,3.0,3.0,37,0.00,,,0.00,Wunderground v.1.15,2013-01-30 08:25:00,
2013-01-30 00:30:00,45.4,20.0,30.24,NNW,331,1.0,1.0,36,0.00,,,0.00,Wunderground v.1.15,2013-01-30 08:30:00,
2013-01-30 00:36:00,44.8,20.7,30.24,NNW,331,0.0,1.0,38,0.00,,,0.00,Wunderground v.1.15,2013-01-30 08:36:00,
2013-01-30 00:41:00,44.8,18.1,30.24,North,350,2.0,4.0,34,0.00,,,0.00,Wunderground v.1.15,2013-01-30 08:41:00,
2013-01-30 00:47:00,44.5,21.6,30.23,North,355,4.0,6.0,40,0.00,,,0.00,Wunderground v.1.15,2013-01-30 08:47:00,
2013-01-30 00:53:00,43.5,21.9,30.23,NNW,336,3.0,4.0,42,0.00,,,0.00,Wunderground v.1.15,2013-01-30 08:53:00,
2013-01-30 00:58:00,42.9,21.9,30.23,NNW,335,1.0,4.0,43,0.00,,,0.00,Wunderground v.1.15,2013-01-30 08:58:00,
2013-01-30 01:04:00,42.6,21.1,30.23,NNW,335,0.0,14.0,42,0.00,,,0.00,Wunderground v.1.15,2013-01-30 09:04:00,
2013-01-30 01:10:00,42.1,21.7,30.23,NNW,335,0.0,0.0,44,0.00,,,0.00,Wunderground v.1.15,2013-01-30 09:10:00,
2013-01-30 01:16:00,41.9,22.1,30.22,NNW,335,0.0,0.0,45,0.00,,,0.00,Wunderground v.1.15,2013-01-30 09:16:00,
2013-01-30 01:22:00,41.6,22.3,30.22,NNW,335,0.0,0.0,46,0.00,,,0.00,Wunderground v.1.15,2013-01-30 09:22:00,
2013-01-30 01:27:00,41.1,22.9,30.22,NNW,335,0.0,0.0,48,0.00,,,0.00,Wunderground v.1.15,2013-01-30 09:27:00,
2013-01-30 01:32:00,40.1,22.9,30.23,NNW,335,0.0,0.0,50,0.00,,,0.00,Wunderground v.1.15,2013-01-30 09:32:00,
2013-01-30 01:38:00,38.9,23.7,30.23,NNW,337,0.0,3.0,54,0.00,,,0.00,Wunderground v.1.15,2013-01-30 09:38:00,
2013-01-30 01:44:00,38.2,23.9,30.23,NNW,337,0.0,0.0,56,0.00,,,0.00,Wunderground v.1.15,2013-01-30 09:44:00,
2013-01-30 01:49:00,38.2,24.3,30.23,NNW,337,0.0,0.0,57,0.00,,,0.00,Wunderground v.1.15,2013-01-30 09:49:00,
2013-01-30 01:54:00,38.0,24.1,30.23,NNW,337,0.0,0.0,57,0.00,,,0.00,Wunderground v.1.15,2013-01-30 09:54:00,
2013-01-30 02:00:00,37.8,23.9,30.24,NNW,337,0.0,0.0,57,0.00,,,0.00,Wunderground v.1.15,2013-01-30 10:00:00,
2013-01-30 02:05:00,37.8,23.9,30.24,NNW,337,0.0,11.0,57,0.00,,,0.00,Wunderground v.1.15,2013-01-30 10:05:00,
2013-01-30 02:11:00,38.0,23.7,30.24,NNW,337,0.0,0.0,56,0.00,,,0.00,Wunderground v.1.15,2013-01-30 10:11:00,
2013-01-30 02:17:00,38.3,24.0,30.23,NNW,337,0.0,0.0,56,0.00,,,0.00,Wunderground v.1.15,2013-01-30 10:17:00,
2013-01-30 02:22:00,38.3,24.0,30.23,NNW,337,0.0,0.0,56,0.00,,,0.00,Wunderground v.1.15,2013-01-30 10:22:00,
2013-01-30 02:27:00,38.5,23.7,30.23,NNW,342,0.0,1.0,55,0.00,,,0.00,Wunderground v.1.15,2013-01-30 10:27:00,
2013-01-30 02:32:00,38.5,23.7,30.24,NNW,342,0.0,0.0,55,0.00,,,0.00,Wunderground v.1.15,2013-01-30 10:32:00,
2013-01-30 02:38:00,38.5,24.1,30.24,NNW,342,0.0,0.0,56,0.00,,,0.00,Wunderground v.1.15,2013-01-30 10:38:00,
2013-01-30 02:44:00,38.5,23.7,30.24,NNW,342,0.0,0.0,55,0.00,,,0.00,Wunderground v.1.15,2013-01-30 10:44:00,
2013-01-30 02:50:00,38.5,23.7,30.24,NNW,342,0.0,0.0,55,0.00,,,0.00,Wunderground v.1.15,2013-01-30 10:50:00,
2013-01-30 02:55:00,38.6,23.4,30.24,NNW,342,0.0,0.0,54,0.00,,,0.00,Wunderground v.1.15,2013-01-30 10:55:00,
2013-01-30 03:01:00,39.1,23.4,30.24,NNW,344,0.0,3.0,53,0.00,,,0.00,Wunderground v.1.15,2013-01-30 11:01:00,
2013-01-30 03:06:00,39.1,23.4,30.24,NNW,344,0.0,3.0,53,0.00,,,0.00,Wunderground v.1.15,2013-01-30 11:06:00,
2013-01-30 03:12:00,39.1,22.9,30.24,NNW,344,0.0,0.0,52,0.00,,,0.00,Wunderground v.1.15,2013-01-30 11:12:00,
2013-01-30 03:17:00,38.9,23.2,30.23,NNW,344,0.0,0.0,53,0.00,,,0.00,Wunderground v.1.15,2013-01-30 11:17:00,
2013-01-30 03:23:00,38.6,22.9,30.23,NNW,344,0.0,0.0,53,0.00,,,0.00,Wunderground v.1.15,2013-01-30 11:23:00,
2013-01-30 03:29:00,38.3,23.1,30.23,NNW,344,0.0,0.0,54,0.00,,,0.00,Wunderground v.1.15,2013-01-30 11:29:00,
2013-01-30 03:33:00,38.5,23.3,30.24,NNW,344,0.0,0.0,54,0.00,,,0.00,Wunderground v.1.15,2013-01-30 11:33:00,
2013-01-30 03:39:00,38.5,23.3,30.24,NNW,344,0.0,0.0,54,0.00,,,0.00,Wunderground v.1.15,2013-01-30 11:39:00,
2013-01-30 03:45:00,38.8,22.7,30.23,NNW,344,0.0,0.0,52,0.00,,,0.00,Wunderground v.1.15,2013-01-30 11:45:00,
2013-01-30 03:51:00,39.2,22.1,30.23,NNW,344,0.0,0.0,50,0.00,,,0.00,Wunderground v.1.15,2013-01-30 11:51:00,
2013-01-30 03:56:00,39.5,22.4,30.23,NNW,344,0.0,0.0,50,0.00,,,0.00,Wunderground v.1.15,2013-01-30 11:56:00,
2013-01-30 04:02:00,39.2,21.6,30.23,NNW,344,0.0,4.0,49,0.00,,,0.00,Wunderground v.1.15,2013-01-30 12:02:00,
2013-01-30 04:08:00,39.2,21.1,30.23,NNW,344,0.0,4.0,48,0.00,,,0.00,Wunderground v.1.15,2013-01-30 12:08:00,
2013-01-30 04:14:00,39.3,21.7,30.23,NNW,344,0.0,0.0,49,0.00,,,0.00,Wunderground v.1.15,2013-01-30 12:14:00,
2013-01-30 04:20:00,39.2,21.6,30.23,NNW,344,0.0,0.0,49,0.00,,,0.00,Wunderground v.1.15,2013-01-30 12:20:00,
2013-01-30 04:26:00,39.1,22.0,30.23,NNW,344,0.0,0.0,50,0.00,,,0.00,Wunderground v.1.15,2013-01-30 12:26:00,
2013-01-30 04:31:00,39.2,22.1,30.23,NNW,344,1.0,3.0,50,0.00,,,0.00,Wunderground v.1.15,2013-01-30 12:31:00,
2013-01-30 04:36:00,39.2,22.1,30.23,NNW,344,1.0,3.0,50,0.00,,,0.00,Wunderground v.1.15,2013-01-30 12:36:00,
2013-01-30 04:42:00,39.3,22.2,30.23,NNW,344,0.0,1.0,50,0.00,,,0.00,Wunderground v.1.15,2013-01-30 12:42:00,
2013-01-30 04:47:00,39.2,22.6,30.23,NNW,344,0.0,1.0,51,0.00,,,0.00,Wunderground v.1.15,2013-01-30 12:47:00,
2013-01-30 04:53:00,38.8,22.7,30.23,NNW,344,0.0,0.0,52,0.00,,,0.00,Wunderground v.1.15,2013-01-30 12:53:00,
2013-01-30 04:58:00,38.6,22.5,30.23,NNW,344,0.0,2.0,52,0.00,,,0.00,Wunderground v.1.15,2013-01-30 12:58:00,
2013-01-30 05:04:00,38.3,22.2,30.24,NNW,344,0.0,2.0,52,0.00,,,0.00,Wunderground v.1.15,2013-01-30 13:04:00,
2013-01-30 05:10:00,38.0,22.4,30.24,NNW,344,0.0,0.0,53,0.00,,,0.00,Wunderground v.1.15,2013-01-30 13:10:00,
2013-01-30 05:15:00,37.9,22.3,30.24,NNW,344,0.0,0.0,53,0.00,,,0.00,Wunderground v.1.15,2013-01-30 13:15:00,
2013-01-30 05:21:00,37.5,22.3,30.24,NNW,344,0.0,0.0,54,0.00,,,0.00,Wunderground v.1.15,2013-01-30 13:21:00,
2013-01-30 05:27:00,36.9,22.7,30.24,NNW,344,1.0,3.0,56,0.00,,,0.00,Wunderground v.1.15,2013-01-30 13:27:00,
2013-01-30 05:32:00,36.8,23.0,30.24,NNW,344,1.0,4.0,57,0.00,,,0.00,Wunderground v.1.15,2013-01-30 13:32:00,
2013-01-30 05:38:00,36.5,23.1,30.24,NNW,344,2.0,4.0,58,0.00,,,0.00,Wunderground v.1.15,2013-01-30 13:38:00,
2013-01-30 05:43:00,36.6,22.8,30.24,NNW,344,2.0,2.0,57,0.00,,,0.00,Wunderground v.1.15,2013-01-30 13:43:00,
2013-01-30 05:48:00,36.8,23.0,30.25,NNW,344,1.0,2.0,57,0.00,,,0.00,Wunderground v.1.15,2013-01-30 13:48:00,
2013-01-30 05:54:00,36.9,23.1,30.25,NNW,344,0.0,0.0,57,0.00,,,0.00,Wunderground v.1.15,2013-01-30 13:54:00,
2013-01-30 05:59:00,37.2,22.9,30.25,NNW,344,0.0,0.0,56,0.00,,,0.00,Wunderground v.1.15,2013-01-30 13:59:00,
2013-01-30 06:04:00,37.5,22.8,30.25,NNW,344,0.0,3.0,55,0.00,,,0.00,Wunderground v.1.15,2013-01-30 14:04:00,
2013-01-30 06:09:00,37.3,22.6,30.25,NNW,344,0.0,0.0,55,0.00,,,0.00,Wunderground v.1.15,2013-01-30 14:09:00,
2013-01-30 06:15:00,37.3,22.6,30.25,NNW,344,0.0,0.0,55,0.00,,,0.00,Wunderground v.1.15,2013-01-30 14:15:00,
2013-01-30 06:20:00,37.3,22.6,30.25,NNW,344,0.0,0.0,55,0.00,,,0.00,Wunderground v.1.15,2013-01-30 14:20:00,
2013-01-30 06:26:00,37.3,22.6,30.25,NNW,344,0.0,0.0,55,0.00,,,0.00,Wunderground v.1.15,2013-01-30 14:26:00,
2013-01-30 06:31:00,37.3,22.6,30.26,NNW,344,0.0,0.0,55,0.00,,,0.00,Wunderground v.1.15,2013-01-30 14:31:00,
2013-01-30 06:37:00,37.2,22.1,30.26,NNW,344,0.0,0.0,54,0.00,,,0.00,Wunderground v.1.15,2013-01-30 14:37:00,
2013-01-30 06:42:00,37.2,22.5,30.26,NNW,344,0.0,0.0,55,0.00,,,0.00,Wunderground v.1.15,2013-01-30 14:42:00,
2013-01-30 06:48:00,37.0,22.3,30.27,NNW,344,0.0,0.0,55,0.00,,,0.00,Wunderground v.1.15,2013-01-30 14:48:00,
2013-01-30 06:53:00,37.0,22.3,30.27,NNW,344,0.0,0.0,55,0.00,,,0.00,Wunderground v.1.15,2013-01-30 14:53:00,
2013-01-30 06:58:00,37.2,22.1,30.27,NNW,344,0.0,0.0,54,0.00,,,0.00,Wunderground v.1.15,2013-01-30 14:58:00,
2013-01-30 07:04:00,37.2,22.5,30.27,NNW,344,0.0,5.0,55,0.00,,,0.00,Wunderground v.1.15,2013-01-30 15:04:00,
2013-01-30 07:10:00,37.5,22.8,30.27,NNW,344,0.0,0.0,55,0.00,,,0.00,Wunderground v.1.15,2013-01-30 15:10:00,
2013-01-30 07:15:00,37.5,22.8,30.27,NNW,344,0.0,0.0,55,0.00,,,0.00,Wunderground v.1.15,2013-01-30 15:15:00,
2013-01-30 07:21:00,37.8,22.6,30.27,NNW,344,0.0,0.0,54,0.00,,,0.00,Wunderground v.1.15,2013-01-30 15:21:00,
2013-01-30 07:26:00,38.5,22.4,30.27,NNW,344,0.0,0.0,52,0.00,,,0.00,Wunderground v.1.15,2013-01-30 15:26:00,
2013-01-30 07:32:00,39.2,22.6,30.27,NNW,344,0.0,0.0,51,0.00,,,0.00,Wunderground v.1.15,2013-01-30 15:32:00,
2013-01-30 07:38:00,39.6,22.5,30.27,NNW,344,0.0,0.0,50,0.00,,,0.00,Wunderground v.1.15,2013-01-30 15:38:00,
2013-01-30 07:44:00,39.8,22.7,30.27,NNW,344,0.0,0.0,50,0.00,,,0.00,Wunderground v.1.15,2013-01-30 15:44:00,
2013-01-30 07:50:00,39.8,23.1,30.27,NNW,344,0.0,0.0,51,0.00,,,0.00,Wunderground v.1.15,2013-01-30 15:50:00,
2013-01-30 07:56:00,39.9,23.2,30.27,NNW,344,0.0,0.0,51,0.00,,,0.00,Wunderground v.1.15,2013-01-30 15:56:00,
2013-01-30 08:01:00,40.5,23.8,30.27,NNW,344,0.0,0.0,51,0.00,,,0.00,Wunderground v.1.15,2013-01-30 16:01:00,
2013-01-30 08:07:00,41.3,23.6,30.27,NNW,344,0.0,0.0,49,0.00,,,0.00,Wunderground v.1.15,2013-01-30 16:07:00,
2013-01-30 08:13:00,42.3,24.0,30.27,NNW,344,0.0,0.0,48,0.00,,,0.00,Wunderground v.1.15,2013-01-30 16:13:00,
2013-01-30 08:18:00,42.9,24.5,30.27,NNW,344,0.0,0.0,48,0.00,,,0.00,Wunderground v.1.15,2013-01-30 16:18:00,
2013-01-30 08:24:00,43.2,24.3,30.27,NNW,344,0.0,0.0,47,0.00,,,0.00,Wunderground v.1.15,2013-01-30 16:24:00,
2013-01-30 08:29:00,43.6,24.7,30.28,NNW,344,0.0,0.0,47,0.00,,,0.00,Wunderground v.1.15,2013-01-30 16:29:00,
2013-01-30 08:35:00,43.9,24.9,30.28,NNW,344,0.0,0.0,47,0.00,,,0.00,Wunderground v.1.15,2013-01-30 16:35:00,
2013-01-30 08:41:00,44.1,24.6,30.28,NNW,344,0.0,0.0,46,0.00,,,0.00,Wunderground v.1.15,2013-01-30 16:41:00,
2013-01-30 08:47:00,44.2,25.2,30.28,NNW,344,0.0,0.0,47,0.00,,,0.00,Wunderground v.1.15,2013-01-30 16:47:00,
2013-01-30 08:52:00,43.8,24.3,30.28,NNW,344,0.0,0.0,46,0.00,,,0.00,Wunderground v.1.15,2013-01-30 16:52:00,
2013-01-30 08:58:00,43.3,23.9,30.28,NNW,344,0.0,0.0,46,0.00,,,0.00,Wunderground v.1.15,2013-01-30 16:58:00,
2013-01-30 09:03:00,43.8,25.4,30.29,NNW,344,0.0,3.0,48,0.00,,,0.00,Wunderground v.1.15,2013-01-30 17:03:00,
2013-01-30 09:09:00,44.5,25.0,30.29,NNW,344,0.0,3.0,46,0.00,,,0.00,Wunderground v.1.15,2013-01-30 17:09:00,
2013-01-30 09:14:00,45.1,26.6,30.28,NNW,344,0.0,0.0,48,0.00,,,0.00,Wunderground v.1.15,2013-01-30 17:14:00,
2013-01-30 09:20:00,45.5,25.4,30.28,NNW,345,0.0,0.0,45,0.00,,,0.00,Wunderground v.1.15,2013-01-30 17:20:00,
2013-01-30 09:26:00,45.7,26.6,30.28,NNW,346,1.0,3.0,47,0.00,,,0.00,Wunderground v.1.15,2013-01-30 17:26:00,
2013-01-30 09:31:00,46.0,26.9,30.29,NNW,347,1.0,1.0,47,0.00,,,0.00,Wunderground v.1.15,2013-01-30 17:31:00,
2013-01-30 09:36:00,46.0,26.4,30.29,SSE,151,0.0,3.0,46,0.00,,,0.00,Wunderground v.1.15,2013-01-30 17:36:00,
2013-01-30 09:42:00,46.4,26.7,30.29,SSE,151,0.0,0.0,46,0.00,,,0.00,Wunderground v.1.15,2013-01-30 17:42:00,
2013-01-30 09:47:00,46.5,26.8,30.30,SSE,153,0.0,3.0,46,0.00,,,0.00,Wunderground v.1.15,2013-01-30 17:47:00,
2013-01-30 09:52:00,46.7,26.5,30.30,SSE,154,0.0,0.0,45,0.00,,,0.00,Wunderground v.1.15,2013-01-30 17:52:00,
2013-01-30 09:58:00,46.5,28.3,30.30,SSE,154,0.0,0.0,49,0.00,,,0.00,Wunderground v.1.15,2013-01-30 17:58:00,
2013-01-30 10:03:00,47.0,27.3,30.29,SSE,154,0.0,1.0,46,0.00,,,0.00,Wunderground v.1.15,2013-01-30 18:03:00,
2013-01-30 10:08:00,47.4,27.1,30.29,SSE,159,0.0,2.0,45,0.00,,,0.00,Wunderground v.1.15,2013-01-30 18:08:00,
2013-01-30 10:13:00,47.7,27.9,30.29,SSE,159,1.0,3.0,46,0.00,,,0.00,Wunderground v.1.15,2013-01-30 18:13:00,
2013-01-30 10:18:00,48.6,28.2,30.29,SSE,159,1.0,3.0,45,0.00,,,0.00,Wunderground v.1.15,2013-01-30 18:18:00,
2013-01-30 10:24:00,48.3,29.0,30.29,SSE,159,0.0,0.0,47,0.00,,,0.00,Wunderground v.1.15,2013-01-30 18:24:00,
2013-01-30 10:29:00,48.2,28.4,30.29,SSE,159,0.0,0.0,46,0.00,,,0.00,Wunderground v.1.15,2013-01-30 18:29:00,
2013-01-30 10:34:00,46.8,28.1,30.29,SSE,161,0.0,2.0,48,0.00,,,0.00,Wunderground v.1.15,2013-01-30 18:34:00,
2013-01-30 10:40:00,47.4,28.2,30.29,SSW,198,0.0,1.0,47,0.00,,,0.00,Wunderground v.1.15,2013-01-30 18:40:00,
2013-01-30 10:46:00,46.5,27.8,30.29,WSW,256,0.0,1.0,48,0.00,,,0.00,Wunderground v.1.15,2013-01-30 18:46:00,
2013-01-30 10:51:00,46.4,28.3,30.29,WSW,256,0.0,0.0,49,0.00,,,0.00,Wunderground v.1.15,2013-01-30 18:51:00,
2013-01-30 10:57:00,46.1,28.5,30.29,WSW,256,0.0,0.0,50,0.00,,,0.00,Wunderground v.1.15,2013-01-30 18:57:00,
2013-01-30 11:02:00,46.4,28.3,30.29,WSW,256,0.0,4.0,49,0.00,,,0.00,Wunderground v.1.15,2013-01-30 19:02:00,
2013-01-30 11:08:00,45.8,28.2,30.29,WSW,257,1.0,4.0,50,0.00,,,0.00,Wunderground v.1.15,2013-01-30 19:08:00,
2013-01-30 11:14:00,46.1,28.5,30.28,WSW,257,0.0,1.0,50,0.00,,,0.00,Wunderground v.1.15,2013-01-30 19:14:00,
2013-01-30 11:19:00,46.1,28.5,30.28,WSW,257,0.0,0.0,50,0.00,,,0.00,Wunderground v.1.15,2013-01-30 19:19:00,
2013-01-30 11:25:00,46.0,29.3,30.28,WSW,257,0.0,0.0,52,0.00,,,0.00,Wunderground v.1.15,2013-01-30 19:25:00,
2013-01-30 11:30:00,46.2,29.1,30.27,WSW,257,0.0,0.0,51,0.00,,,0.00,Wunderground v.1.15,2013-01-30 19:30:00,
2013-01-30 11:36:00,47.6,28.9,30.27,WSW,257,0.0,0.0,48,0.00,,,0.00,Wunderground v.1.15,2013-01-30 19:36:00,
2013-01-30 11:41:00,47.1,29.9,30.27,WSW,257,0.0,0.0,51,0.00,,,0.00,Wunderground v.1.15,2013-01-30 19:41:00,
2013-01-30 11:47:00,47.3,29.1,30.26,WSW,257,0.0,0.0,49,0.00,,,0.00,Wunderground v.1.15,2013-01-30 19:47:00,
2013-01-30 11:52:00,48.0,29.7,30.26,WSW,257,0.0,3.0,49,0.00,,,0.00,Wunderground v.1.15,2013-01-30 19:52:00,
2013-01-30 11:58:00,48.3,30.0,30.26,WSW,257,0.0,3.0,49,0.00,,,0.00,Wunderground v.1.15,2013-01-30 19:58:00,
2013-01-30 12:04:00,48.2,30.9,30.26,WSW,257,0.0,5.0,51,0.00,,,0.00,Wunderground v.1.15,2013-01-30 20:04:00,
2013-01-30 12:10:00,48.3,31.0,30.26,WSW,257,0.0,0.0,51,0.00,,,0.00,Wunderground v.1.15,2013-01-30 20:10:00,
2013-01-30 12:16:00,48.6,31.8,30.26,WSW,257,0.0,0.0,52,0.00,,,0.00,Wunderground v.1.15,2013-01-30 20:16:00,
2013-01-30 12:22:00,48.2,31.4,30.26,WSW,257,0.0,0.0,52,0.00,,,0.00,Wunderground v.1.15,2013-01-30 20:22:00,
2013-01-30 12:27:00,48.3,31.9,30.26,WSW,257,0.0,2.0,53,0.00,,,0.00,Wunderground v.1.15,2013-01-30 20:27:00,
2013-01-30 12:33:00,48.5,32.1,30.25,WSW,257,0.0,3.0,53,0.00,,,0.00,Wunderground v.1.15,2013-01-30 20:33:00,
2013-01-30 12:38:00,48.8,32.4,30.25,WSW,257,0.0,3.0,53,0.00,,,0.00,Wunderground v.1.15,2013-01-30 20:38:00,
2013-01-30 12:44:00,48.9,32.0,30.24,WSW,257,0.0,0.0,52,0.00,,,0.00,Wunderground v.1.15,2013-01-30 20:44:00,
2013-01-30 12:50:00,49.5,32.6,30.24,WSW,257,0.0,0.0,52,0.00,,,0.00,Wunderground v.1.15,2013-01-30 20:50:00,
2013-01-30 12:55:00,49.8,32.9,30.24,WSW,257,0.0,2.0,52,0.00,,,0.00,Wunderground v.1.15,2013-01-30 20:55:00,
2013-01-30 13:01:00,49.2,33.3,30.23,WSW,257,0.0,5.0,54,0.00,,,0.00,Wunderground v.1.15,2013-01-30 21:01:00,
2013-01-30 13:06:00,48.9,32.5,30.23,WSW,257,0.0,5.0,53,0.00,,,0.00,Wunderground v.1.15,2013-01-30 21:06:00,
2013-01-30 13:12:00,48.9,33.0,30.23,WSW,257,0.0,0.0,54,0.00,,,0.00,Wunderground v.1.15,2013-01-30 21:12:00,
2013-01-30 13:18:00,49.2,33.3,30.23,WSW,257,0.0,0.0,54,0.00,,,0.00,Wunderground v.1.15,2013-01-30 21:18:00,
2013-01-30 13:24:00,49.1,33.2,30.23,WSW,257,0.0,0.0,54,0.00,,,0.00,Wunderground v.1.15,2013-01-30 21:24:00,
2013-01-30 13:30:00,49.2,33.7,30.23,WSW,257,0.0,0.0,55,0.00,,,0.00,Wunderground v.1.15,2013-01-30 21:30:00,
2013-01-30 13:36:00,49.2,32.8,30.23,WSW,257,0.0,3.0,53,0.00,,,0.00,Wunderground v.1.15,2013-01-30 21:36:00,
2013-01-30 13:42:00,49.1,33.6,30.23,West,261,0.0,2.0,55,0.00,,,0.00,Wunderground v.1.15,2013-01-30 21:42:00,
2013-01-30 13:48:00,48.9,33.9,30.22,West,261,0.0,2.0,56,0.00,,,0.00,Wunderground v.1.15,2013-01-30 21:48:00,
2013-01-30 13:53:00,49.1,33.2,30.22,West,261,0.0,0.0,54,0.00,,,0.00,Wunderground v.1.15,2013-01-30 21:53:00,
2013-01-30 13:59:00,48.8,33.3,30.22,West,261,0.0,2.0,55,0.00,,,0.00,Wunderground v.1.15,2013-01-30 21:59:00,
2013-01-30 14:04:00,49.1,33.2,30.22,West,261,0.0,3.0,54,0.00,,,0.00,Wunderground v.1.15,2013-01-30 22:04:00,
2013-01-30 14:10:00,51.0,34.0,30.22,West,261,0.0,0.0,52,0.00,,,0.00,Wunderground v.1.15,2013-01-30 22:10:00,
2013-01-30 14:15:00,51.6,34.0,30.22,WSW,256,0.0,0.0,51,0.00,,,0.00,Wunderground v.1.15,2013-01-30 22:15:00,
2013-01-30 14:21:00,51.6,33.6,30.22,WSW,248,0.0,0.0,50,0.00,,,0.00,Wunderground v.1.15,2013-01-30 22:21:00,
2013-01-30 14:26:00,50.5,34.0,30.22,WSW,248,0.0,1.0,53,0.00,,,0.00,Wunderground v.1.15,2013-01-30 22:26:00,
2013-01-30 14:31:00,50.7,34.2,30.22,WSW,248,0.0,0.0,53,0.00,,,0.00,Wunderground v.1.15,2013-01-30 22:31:00,
2013-01-30 14:37:00,50.7,33.7,30.22,WSW,248,0.0,1.0,52,0.00,,,0.00,Wunderground v.1.15,2013-01-30 22:37:00,
2013-01-30 14:42:00,51.0,34.0,30.22,WSW,248,0.0,0.0,52,0.00,,,0.00,Wunderground v.1.15,2013-01-30 22:42:00,
2013-01-30 14:48:00,50.4,33.9,30.21,WSW,249,0.0,0.0,53,0.00,,,0.00,Wunderground v.1.15,2013-01-30 22:48:00,
2013-01-30 14:54:00,49.9,33.4,30.21,WSW,249,0.0,4.0,53,0.00,,,0.00,Wunderground v.1.15,2013-01-30 22:54:00,
2013-01-30 14:59:00,49.5,34.0,30.21,WSW,250,1.0,4.0,55,0.00,,,0.00,Wunderground v.1.15,2013-01-30 22:59:00,
2013-01-30 15:04:00,49.9,33.9,30.21,WSW,250,0.0,4.0,54,0.00,,,0.00,Wunderground v.1.15,2013-01-30 23:04:00,
2013-01-30 15:10:00,50.4,34.4,30.21,WSW,250,0.0,0.0,54,0.00,,,0.00,Wunderground v.1.15,2013-01-30 23:10:00,
2013-01-30 15:16:00,49.9,33.9,30.21,WSW,250,0.0,0.0,54,0.00,,,0.00,Wunderground v.1.15,2013-01-30 23:16:00,
2013-01-30 15:21:00,49.6,33.6,30.21,WSW,250,0.0,0.0,54,0.00,,,0.00,Wunderground v.1.15,2013-01-30 23:21:00,
2013-01-30 15:26:00,49.8,33.8,30.21,WSW,250,0.0,0.0,54,0.00,,,0.00,Wunderground v.1.15,2013-01-30 23:26:00,
2013-01-30 15:32:00,50.2,34.6,30.20,WSW,250,0.0,0.0,55,0.00,,,0.00,Wunderground v.1.15,2013-01-30 23:32:00,
2013-01-30 15:37:00,50.2,33.7,30.20,WSW,250,0.0,1.0,53,0.00,,,0.00,Wunderground v.1.15,2013-01-30 23:37:00,
2013-01-30 15:42:00,49.9,34.4,30.20,WSW,250,0.0,0.0,55,0.00,,,0.00,Wunderground v.1.15,2013-01-30 23:42:00,
2013-01-30 15:47:00,49.6,34.5,30.20,WSW,250,0.0,0.0,56,0.00,,,0.00,Wunderground v.1.15,2013-01-30 23:47:00,
2013-01-30 15:52:00,49.6,34.1,30.20,WSW,250,0.0,0.0,55,0.00,,,0.00,Wunderground v.1.15,2013-01-30 23:52:00,
2013-01-30 15:58:00,48.9,33.9,30.20,WSW,251,0.0,3.0,56,0.00,,,0.00,Wunderground v.1.15,2013-01-30 23:58:00,
2013-01-30 16:03:00,49.1,34.1,30.20,WSW,251,0.0,5.0,56,0.00,,,0.00,Wunderground v.1.15,2013-01-31 00:03:00,
2013-01-30 16:09:00,48.9,33.9,30.20,WSW,251,0.0,5.0,56,0.00,,,0.00,Wunderground v.1.15,2013-01-31 00:09:00,
2013-01-30 16:15:00,48.0,33.9,30.20,WSW,252,0.0,2.0,58,0.00,,,0.00,Wunderground v.1.15,2013-01-31 00:15:00,
2013-01-30 16:21:00,47.6,33.5,30.20,WSW,251,0.0,0.0,58,0.00,,,0.00,Wunderground v.1.15,2013-01-31 00:21:00,
2013-01-30 16:26:00,47.4,33.8,30.20,WSW,251,0.0,0.0,59,0.00,,,0.00,Wunderground v.1.15,2013-01-31 00:26:00,
2013-01-30 16:32:00,46.8,33.2,30.20,WSW,251,0.0,0.0,59,0.00,,,0.00,Wunderground v.1.15,2013-01-31 00:32:00,
2013-01-30 16:37:00,46.4,33.3,30.20,WSW,251,0.0,0.0,60,0.00,,,0.00,Wunderground v.1.15,2013-01-31 00:37:00,
2013-01-30 16:43:00,46.0,32.9,30.20,WSW,251,0.0,0.0,60,0.00,,,0.00,Wunderground v.1.15,2013-01-31 00:43:00,
2013-01-30 16:48:00,45.7,33.0,30.20,WSW,251,0.0,0.0,61,0.00,,,0.00,Wunderground v.1.15,2013-01-31 00:48:00,
2013-01-30 16:53:00,45.4,33.1,30.20,WSW,251,0.0,0.0,62,0.00,,,0.00,Wunderground v.1.15,2013-01-31 00:53:00,
2013-01-30 17:00:00,44.8,32.6,30.19,WSW,251,0.0,0.0,62,0.00,,,0.00,Wunderground v.1.15,2013-01-31 01:00:00,
2013-01-30 17:06:00,44.5,32.7,30.19,WSW,251,0.0,4.0,63,0.00,,,0.00,Wunderground v.1.15,2013-01-31 01:06:00,
2013-01-30 17:11:00,44.2,32.4,30.19,WSW,251,0.0,0.0,63,0.00,,,0.00,Wunderground v.1.15,2013-01-31 01:11:00,
2013-01-30 17:17:00,43.9,32.5,30.19,WSW,251,0.0,0.0,64,0.00,,,0.00,Wunderground v.1.15,2013-01-31 01:17:00,
2013-01-30 17:23:00,43.6,32.6,30.19,WSW,251,0.0,0.0,65,0.00,,,0.00,Wunderground v.1.15,2013-01-31 01:23:00,
2013-01-30 17:28:00,43.2,33.0,30.19,WSW,251,0.0,0.0,67,0.00,,,0.00,Wunderground v.1.15,2013-01-31 01:28:00,
2013-01-30 17:33:00,42.9,32.7,30.19,WSW,251,0.0,0.0,67,0.00,,,0.00,Wunderground v.1.15,2013-01-31 01:33:00,
2013-01-30 17:38:00,42.5,32.7,30.19,WSW,251,0.0,0.0,68,0.00,,,0.00,Wunderground v.1.15,2013-01-31 01:38:00,
2013-01-30 17:43:00,42.1,32.7,30.19,WSW,251,0.0,0.0,69,0.00,,,0.00,Wunderground v.1.15,2013-01-31 01:43:00,
2013-01-30 17:48:00,41.8,32.7,30.19,WSW,251,0.0,0.0,70,0.00,,,0.00,Wunderground v.1.15,2013-01-31 01:48:00,
2013-01-30 17:54:00,41.6,32.5,30.19,WSW,251,0.0,0.0,70,0.00,,,0.00,Wunderground v.1.15,2013-01-31 01:54:00,
2013-01-30 17:59:00,41.6,32.2,30.19,WSW,251,0.0,0.0,69,0.00,,,0.00,Wunderground v.1.15,2013-01-31 01:59:00,
2013-01-30 18:04:00,41.3,32.2,30.19,WSW,251,0.0,3.0,70,0.00,,,0.00,Wunderground v.1.15,2013-01-31 02:04:00,
2013-01-30 18:10:00,41.2,32.2,30.19,WSW,251,0.0,0.0,70,0.00,,,0.00,Wunderground v.1.15,2013-01-31 02:10:00,
2013-01-30 18:16:00,40.9,32.2,30.19,WSW,251,0.0,0.0,71,0.00,,,0.00,Wunderground v.1.15,2013-01-31 02:16:00,
2013-01-30 18:21:00,40.9,31.9,30.19,WSW,251,0.0,0.0,70,0.00,,,0.00,Wunderground v.1.15,2013-01-31 02:21:00,
2013-01-30 18:26:00,41.1,32.1,30.19,WSW,251,0.0,0.0,70,0.00,,,0.00,Wunderground v.1.15,2013-01-31 02:26:00,
2013-01-30 18:32:00,41.1,32.1,30.19,WSW,251,0.0,0.0,70,0.00,,,0.00,Wunderground v.1.15,2013-01-31 02:32:00,
2013-01-30 18:38:00,41.1,32.1,30.19,WSW,251,0.0,0.0,70,0.00,,,0.00,Wunderground v.1.15,2013-01-31 02:38:00,
2013-01-30 18:44:00,40.9,31.9,30.19,WSW,251,0.0,0.0,70,0.00,,,0.00,Wunderground v.1.15,2013-01-31 02:44:00,
2013-01-30 18:49:00,40.8,32.1,30.19,WSW,251,0.0,0.0,71,0.00,,,0.00,Wunderground v.1.15,2013-01-31 02:49:00,
2013-01-30 18:54:00,40.8,31.8,30.19,WSW,251,0.0,0.0,70,0.00,,,0.00,Wunderground v.1.15,2013-01-31 02:54:00,
2013-01-30 18:59:00,40.8,31.8,30.19,WSW,251,0.0,0.0,70,0.00,,,0.00,Wunderground v.1.15,2013-01-31 02:59:00,
2013-01-30 19:04:00,40.8,31.8,30.19,WSW,251,0.0,0.0,70,0.00,,,0.00,Wunderground v.1.15,2013-01-31 03:04:00,
2013-01-30 19:10:00,40.8,32.1,30.19,WSW,251,0.0,0.0,71,0.00,,,0.00,Wunderground v.1.15,2013-01-31 03:10:00,
2013-01-30 19:15:00,40.9,31.9,30.19,WSW,251,0.0,0.0,70,0.00,,,0.00,Wunderground v.1.15,2013-01-31 03:15:00,
2013-01-30 19:21:00,41.1,32.1,30.19,WSW,251,0.0,0.0,70,0.00,,,0.00,Wunderground v.1.15,2013-01-31 03:21:00,
2013-01-30 19:26:00,41.2,31.8,30.19,WSW,251,0.0,0.0,69,0.00,,,0.00,Wunderground v.1.15,2013-01-31 03:26:00,
2013-01-30 19:32:00,41.1,32.1,30.18,WSW,251,0.0,0.0,70,0.00,,,0.00,Wunderground v.1.15,2013-01-31 03:32:00,
2013-01-30 19:37:00,40.9,31.9,30.18,WSW,251,0.0,0.0,70,0.00,,,0.00,Wunderground v.1.15,2013-01-31 03:37:00,
2013-01-30 19:42:00,40.9,31.5,30.18,WSW,251,0.0,0.0,69,0.00,,,0.00,Wunderground v.1.15,2013-01-31 03:42:00,
2013-01-30 19:48:00,40.9,31.5,30.19,WSW,251,0.0,0.0,69,0.00,,,0.00,Wunderground v.1.15,2013-01-31 03:48:00,
2013-01-30 19:53:00,41.2,31.4,30.19,WSW,251,0.0,0.0,68,0.00,,,0.00,Wunderground v.1.15,2013-01-31 03:53:00,
2013-01-30 19:59:00,41.8,31.6,30.19,WSW,251,0.0,0.0,67,0.00,,,0.00,Wunderground v.1.15,2013-01-31 03:59:00,
2013-01-30 20:04:00,42.1,31.6,30.19,WSW,251,0.0,1.0,66,0.00,,,0.00,Wunderground v.1.15,2013-01-31 04:04:00,
2013-01-30 20:10:00,41.8,31.3,30.19,WSW,251,0.0,0.0,66,0.00,,,0.00,Wunderground v.1.15,2013-01-31 04:10:00,
2013-01-30 20:16:00,41.5,29.8,30.19,WSW,251,0.0,3.0,63,0.00,,,0.00,Wunderground v.1.15,2013-01-31 04:16:00,
2013-01-30 20:22:00,41.8,30.5,30.19,WSW,251,0.0,0.0,64,0.00,,,0.00,Wunderground v.1.15,2013-01-31 04:22:00,
2013-01-30 20:28:00,41.9,28.2,30.19,WSW,251,0.0,0.0,58,0.00,,,0.00,Wunderground v.1.15,2013-01-31 04:28:00,
2013-01-30 20:33:00,42.9,25.0,30.19,NNW,348,0.0,0.0,49,0.00,,,0.00,Wunderground v.1.15,2013-01-31 04:33:00,
2013-01-30 20:39:00,44.2,24.2,30.19,WNW,290,1.0,3.0,45,0.00,,,0.00,Wunderground v.1.15,2013-01-31 04:39:00,
2013-01-30 20:44:00,44.9,23.7,30.19,NNW,331,1.0,4.0,43,0.00,,,0.00,Wunderground v.1.15,2013-01-31 04:44:00,
2013-01-30 20:50:00,45.8,22.2,30.19,NW,321,1.0,1.0,39,0.00,,,0.00,Wunderground v.1.15,2013-01-31 04:50:00,
2013-01-30 20:55:00,46.0,25.3,30.19,North,355,1.0,3.0,44,0.00,,,0.00,Wunderground v.1.15,2013-01-31 04:55:00,
2013-01-30 21:00:00,45.4,28.3,30.19,NNE,28,1.0,1.0,51,0.00,,,0.00,Wunderground v.1.15,2013-01-31 05:00:00,
2013-01-30 21:01:00,45.2,27.6,30.19,NNE,28,1.0,1.0,50,0.00,,,0.00,Wunderground v.1.15,2013-01-31 05:01:00,
2013-01-30 21:02:00,45.1,28.0,30.19,NNE,28,0.0,1.0,51,0.00,,,0.00,Wunderground v.1.15,2013-01-31 05:02:00,
2013-01-30 21:07:00,44.6,24.5,30.19,NNE,28,0.0,1.0,45,0.00,,,0.00,Wunderground v.1.15,2013-01-31 05:07:00,
2013-01-30 21:08:00,44.6,22.3,30.19,North,349,0.0,1.0,41,0.00,,,0.00,Wunderground v.1.15,2013-01-31 05:08:00,
2013-01-30 21:14:00,44.9,26.9,30.19,West,281,0.0,0.0,49,0.00,,,0.00,Wunderground v.1.15,2013-01-31 05:14:00,
2013-01-30 21:20:00,44.6,24.0,30.19,SE,143,0.0,0.0,44,0.00,,,0.00,Wunderground v.1.15,2013-01-31 05:20:00,
2013-01-30 21:26:00,44.8,27.3,30.19,NW,316,0.0,1.0,50,0.00,,,0.00,Wunderground v.1.15,2013-01-31 05:26:00,
2013-01-30 21:31:00,44.2,27.2,30.20,NW,316,0.0,0.0,51,0.00,,,0.00,Wunderground v.1.15,2013-01-31 05:31:00,
2013-01-30 21:37:00,43.6,27.1,30.20,NW,314,0.0,1.0,52,0.00,,,0.00,Wunderground v.1.15,2013-01-31 05:37:00,
2013-01-30 21:43:00,43.2,28.1,30.20,NW,315,0.0,0.0,55,0.00,,,0.00,Wunderground v.1.15,2013-01-31 05:43:00,
2013-01-30 21:48:00,42.6,28.8,30.21,NW,315,0.0,0.0,58,0.00,,,0.00,Wunderground v.1.15,2013-01-31 05:48:00,
2013-01-30 21:54:00,41.9,29.4,30.21,NW,315,0.0,1.0,61,0.00,,,0.00,Wunderground v.1.15,2013-01-31 05:54:00,
2013-01-30 21:59:00,41.5,29.4,30.21,NW,315,0.0,1.0,62,0.00,,,0.00,Wunderground v.1.15,2013-01-31 05:59:00,
2013-01-30 22:04:00,41.2,29.2,30.21,NW,314,0.0,11.0,62,0.00,,,0.00,Wunderground v.1.15,2013-01-31 06:04:00,
2013-01-30 22:10:00,42.1,28.8,30.21,NNW,335,0.0,0.0,59,0.00,,,0.00,Wunderground v.1.15,2013-01-31 06:10:00,
2013-01-30 22:15:00,42.1,27.9,30.21,NNW,335,0.0,0.0,57,0.00,,,0.00,Wunderground v.1.15,2013-01-31 06:15:00,
2013-01-30 22:21:00,41.8,28.9,30.21,NNW,335,0.0,0.0,60,0.00,,,0.00,Wunderground v.1.15,2013-01-31 06:21:00,
2013-01-30 22:26:00,41.6,29.1,30.21,NNW,335,0.0,0.0,61,0.00,,,0.00,Wunderground v.1.15,2013-01-31 06:26:00,
2013-01-30 22:32:00,41.3,28.9,30.21,NNW,335,0.0,0.0,61,0.00,,,0.00,Wunderground v.1.15,2013-01-31 06:32:00,
2013-01-30 22:37:00,41.1,29.1,30.21,NNW,335,0.0,0.0,62,0.00,,,0.00,Wunderground v.1.15,2013-01-31 06:37:00,
2013-01-30 22:42:00,41.1,29.5,30.21,NNW,335,0.0,0.0,63,0.00,,,0.00,Wunderground v.1.15,2013-01-31 06:42:00,
2013-01-30 22:48:00,41.1,28.3,30.22,NNW,335,0.0,0.0,60,0.00,,,0.00,Wunderground v.1.15,2013-01-31 06:48:00,
2013-01-30 22:53:00,41.3,28.9,30.22,NNW,337,0.0,0.0,61,0.00,,,0.00,Wunderground v.1.15,2013-01-31 06:53:00,
2013-01-30 22:59:00,41.3,28.9,30.22,NNW,337,0.0,0.0,61,0.00,,,0.00,Wunderground v.1.15,2013-01-31 06:59:00,
2013-01-30 23:04:00,41.3,28.9,30.22,NNW,337,0.0,11.0,61,0.00,,,0.00,Wunderground v.1.15,2013-01-31 07:04:00,
2013-01-30 23:10:00,41.3,27.2,30.22,NNW,337,0.0,0.0,57,0.00,,,0.00,Wunderground v.1.15,2013-01-31 07:10:00,
2013-01-30 23:15:00,42.2,27.2,30.22,NNW,337,0.0,0.0,55,0.00,,,0.00,Wunderground v.1.15,2013-01-31 07:15:00,
2013-01-30 23:21:00,42.1,26.6,30.22,NNW,337,0.0,0.0,54,0.00,,,0.00,Wunderground v.1.15,2013-01-31 07:21:00,
2013-01-30 23:26:00,41.9,26.4,30.22,NNW,337,0.0,0.0,54,0.00,,,0.00,Wunderground v.1.15,2013-01-31 07:26:00,
2013-01-30 23:31:00,41.6,26.2,30.21,NNW,337,0.0,0.0,54,0.00,,,0.00,Wunderground v.1.15,2013-01-31 07:31:00,
2013-01-30 23:37:00,41.8,26.4,30.21,NNW,337,0.0,0.0,54,0.00,,,0.00,Wunderground v.1.15,2013-01-31 07:37:00,
2013-01-30 23:43:00,41.6,26.2,30.21,NNW,337,0.0,0.0,54,0.00,,,0.00,Wunderground v.1.15,2013-01-31 07:43:00,
2013-01-30 23:48:00,41.8,26.4,30.21,NNW,337,0.0,0.0,54,0.00,,,0.00,Wunderground v.1.15,2013-01-31 07:48:00,
2013-01-30 23:53:00,41.9,26.4,30.21,NNW,337,0.0,0.0,54,0.00,,,0.00,Wunderground v.1.15,2013-01-31 07:53:00,
2013-01-30 23:58:00,41.9,26.0,30.21,NNW,337,0.0,0.0,53,0.00,,,0.00,Wunderground v.1.15,2013-01-31 07:58:00,